Time;durP1;ratioP1;P1;durP2;ratioP2;P2;SDS_P1;SDS_P2;PMS_P1;PMS_P2;Temp;Humidity;BMP_temperature;BMP_pressure;BME280_temperature;BME280_humidity;BME280_pressure;Samples;Min_cycle;Max_cycle;Signal;HPM_P1;HPM_P2
2023/08/21 00:00:24;;;;;;;12.40;6.03;;;;;;;;;;5085672;28;20056;-61
2023/08/21 00:03:10;;;;;;;16.33;6.63;;;;;;;;;;5089335;28;20052;-61
2023/08/21 00:05:36;;;;;;;10.57;6.15;;;;;;;;;;5086069;28;20044;-60
2023/08/21 00:08:02;;;;;;;10.98;6.38;;;;;;;;;;5078424;28;20040;-61
2023/08/21 00:10:30;;;;;;;12.32;6.10;;;;;;;;;;5087946;28;20127;-63
2023/08/21 00:12:56;;;;;;;12.35;6.57;;;;;;;;;;5084139;28;20499;-60
2023/08/21 00:15:22;;;;;;;13.52;6.38;;;;;;;;;;5079730;28;20121;-61
2023/08/21 00:17:48;;;;;;;12.48;6.32;;;;;;;;;;5084405;28;20048;-62
2023/08/21 00:20:14;;;;;;;16.02;6.43;;;;;;;;;;5090698;28;20040;-58
2023/08/21 00:22:40;;;;;;;13.77;6.18;;;;;;;;;;5083006;28;20055;-58
2023/08/21 00:25:06;;;;;;;10.60;6.25;;;;;;;;;;5080525;28;20060;-59
2023/08/21 00:27:32;;;;;;;13.15;6.07;;;;;;;;;;5086963;28;20048;-61
2023/08/21 00:30:00;;;;;;;8.98;6.22;;;;;;;;;;5085872;28;20066;-60
2023/08/21 00:32:26;;;;;;;10.63;6.30;;;;;;;;;;5084998;28;20040;-59
2023/08/21 00:34:52;;;;;;;12.65;6.60;;;;;;;;;;5084244;28;20055;-59
2023/08/21 00:37:19;;;;;;;12.38;6.43;;;;;;;;;;5083581;28;20048;-61
2023/08/21 00:39:45;;;;;;;11.77;6.30;;;;;;;;;;5084160;28;20051;-59
2023/08/21 00:42:11;;;;;;;12.45;6.57;;;;;;;;;;5083497;28;20059;-59
2023/08/21 00:44:37;;;;;;;13.98;6.32;;;;;;;;;;5085620;28;20048;-59
2023/08/21 00:47:03;;;;;;;10.85;7.18;;;;;;;;;;5084839;28;20048;-56
2023/08/21 00:49:29;;;;;;;14.23;7.00;;;;;;;;;;5080834;28;20048;-57
2023/08/21 00:51:56;;;;;;;8.82;6.45;;;;;;;;;;5081885;28;20055;-58
2023/08/21 00:54:22;;;;;;;15.05;7.05;;;;;;;;;;5084132;28;20565;-60
2023/08/21 00:56:48;;;;;;;11.75;6.65;;;;;;;;;;5087464;28;20403;-60
2023/08/21 00:59:14;;;;;;;16.27;7.15;;;;;;;;;;5089905;28;20044;-59
2023/08/21 01:01:41;;;;;;;14.57;7.07;;;;;;;;;;5081280;28;20415;-58
2023/08/21 01:04:08;;;;;;;12.73;7.82;;;;;;;;;;5083494;28;20433;-59
2023/08/21 01:06:34;;;;;;;10.70;7.15;;;;;;;;;;5088783;28;20048;-58
2023/08/21 01:09:18;;;;;;;11.98;7.07;;;;;;;;;;5074435;28;20044;-60
2023/08/21 01:11:58;;;;;;;12.82;7.40;;;;;;;;;;5085533;28;20064;-58
2023/08/21 01:14:31;;;;;;;15.90;7.25;;;;;;;;;;5086112;28;20087;-58
2023/08/21 01:17:00;;;;;;;14.52;7.45;;;;;;;;;;5087705;28;20499;-58
2023/08/21 01:19:43;;;;;;;18.33;7.80;;;;;;;;;;5089847;28;20408;-57
2023/08/21 01:22:09;;;;;;;13.87;7.57;;;;;;;;;;5077064;28;20051;-58
2023/08/21 01:24:35;;;;;;;12.98;7.45;;;;;;;;;;5085315;28;20060;-59
2023/08/21 01:27:02;;;;;;;20.05;9.00;;;;;;;;;;5087334;28;20052;-59
2023/08/21 01:29:28;;;;;;;12.15;7.88;;;;;;;;;;5088173;28;20055;-59
2023/08/21 01:32:29;;;;;;;13.20;7.95;;;;;;;;;;5081743;28;20044;-60
2023/08/21 01:34:56;;;;;;;16.90;8.70;;;;;;;;;;5071486;28;20099;-57
2023/08/21 01:37:24;;;;;;;14.65;8.55;;;;;;;;;;5075499;28;20512;-61
2023/08/21 01:39:50;;;;;;;16.95;8.60;;;;;;;;;;5081540;28;20070;-57
2023/08/21 01:42:16;;;;;;;14.55;8.50;;;;;;;;;;5081721;28;20510;-59
2023/08/21 01:44:45;;;;;;;17.63;9.18;;;;;;;;;;5085098;28;20060;-59
2023/08/21 01:47:12;;;;;;;13.70;8.30;;;;;;;;;;5073230;28;20044;-60
2023/08/21 01:49:38;;;;;;;11.45;8.18;;;;;;;;;;5088940;28;20451;-59
2023/08/21 01:52:04;;;;;;;14.23;9.05;;;;;;;;;;5083134;28;20044;-60
2023/08/21 01:54:30;;;;;;;17.42;8.95;;;;;;;;;;5086466;28;20070;-60
2023/08/21 01:56:56;;;;;;;16.73;8.75;;;;;;;;;;5080132;28;20055;-60
2023/08/21 01:59:23;;;;;;;13.70;8.77;;;;;;;;;;5088847;28;20086;-61
2023/08/21 02:01:49;;;;;;;13.30;8.90;;;;;;;;;;5082920;28;20048;-57
2023/08/21 02:04:15;;;;;;;17.80;9.48;;;;;;;;;;5081650;28;20252;-59
2023/08/21 02:06:43;;;;;;;14.98;8.73;;;;;;;;;;5086652;28;20101;-59
2023/08/21 02:09:10;;;;;;;14.52;8.25;;;;;;;;;;5084363;28;20484;-60
2023/08/21 02:11:36;;;;;;;16.17;9.38;;;;;;;;;;5085912;28;20132;-60
2023/08/21 02:14:02;;;;;;;13.75;9.15;;;;;;;;;;5075546;28;20466;-60
2023/08/21 02:16:28;;;;;;;15.32;9.52;;;;;;;;;;5079227;28;20605;-58
2023/08/21 02:18:54;;;;;;;13.77;9.15;;;;;;;;;;5083055;28;20040;-61
2023/08/21 02:21:21;;;;;;;13.30;9.15;;;;;;;;;;5079579;28;20044;-60
2023/08/21 02:23:46;;;;;;;14.93;9.75;;;;;;;;;;5077181;28;20058;-57
2023/08/21 02:26:12;;;;;;;15.65;9.90;;;;;;;;;;5073371;28;20101;-54
2023/08/21 02:28:38;;;;;;;18.45;10.57;;;;;;;;;;5082891;28;20048;-56
2023/08/21 02:31:08;;;;;;;14.05;9.13;;;;;;;;;;5079235;28;20048;-56
2023/08/21 02:33:34;;;;;;;14.68;8.38;;;;;;;;;;5082808;28;20358;-58
2023/08/21 02:36:02;;;;;;;18.05;8.75;;;;;;;;;;5083920;28;20039;-58
2023/08/21 02:38:28;;;;;;;15.20;9.10;;;;;;;;;;5086036;28;20044;-57
2023/08/21 02:40:54;;;;;;;15.75;9.30;;;;;;;;;;5083961;28;20109;-56
2023/08/21 02:43:20;;;;;;;19.77;9.50;;;;;;;;;;5084512;28;20051;-58
2023/08/21 02:45:46;;;;;;;14.52;8.48;;;;;;;;;;5087336;28;20063;-60
2023/08/21 02:48:14;;;;;;;14.73;9.13;;;;;;;;;;5082245;28;20052;-56
2023/08/21 02:50:41;;;;;;;15.70;10.15;;;;;;;;;;5081817;28;20052;-58
2023/08/21 02:53:07;;;;;;;18.08;9.45;;;;;;;;;;5071781;28;20139;-56
2023/08/21 02:55:33;;;;;;;15.10;8.93;;;;;;;;;;5082675;28;20066;-60
2023/08/21 02:57:59;;;;;;;11.70;8.85;;;;;;;;;;5074740;28;20451;-54
2023/08/21 03:00:25;;;;;;;13.63;8.32;;;;;;;;;;5082721;28;20056;-59
2023/08/21 03:02:51;;;;;;;16.75;9.02;;;;;;;;;;5079652;28;20048;-60
2023/08/21 03:05:17;;;;;;;15.50;9.13;;;;;;;;;;5084181;28;20105;-58
2023/08/21 03:07:43;;;;;;;17.42;10.00;;;;;;;;;;5084372;28;20048;-60
2023/08/21 03:10:09;;;;;;;15.30;9.75;;;;;;;;;;5083840;28;20169;-58
2023/08/21 03:12:35;;;;;;;11.60;9.23;;;;;;;;;;5081886;28;20176;-57
2023/08/21 03:15:02;;;;;;;16.00;9.48;;;;;;;;;;5084138;28;20052;-57
2023/08/21 03:17:28;;;;;;;16.65;9.32;;;;;;;;;;5085854;28;20122;-58
2023/08/21 03:19:54;;;;;;;16.05;8.75;;;;;;;;;;5087185;28;20041;-58
2023/08/21 03:22:20;;;;;;;16.92;9.82;;;;;;;;;;5081807;28;20410;-60
2023/08/21 03:24:46;;;;;;;16.88;9.30;;;;;;;;;;5082853;28;20078;-59
2023/08/21 03:27:15;;;;;;;12.88;8.90;;;;;;;;;;5085866;28;20044;-55
2023/08/21 03:29:48;;;;;;;12.98;8.77;;;;;;;;;;5083706;28;20048;-58
2023/08/21 03:32:15;;;;;;;13.55;9.13;;;;;;;;;;5086636;28;20044;-60
2023/08/21 03:34:41;;;;;;;13.50;9.45;;;;;;;;;;5083014;28;20133;-55
2023/08/21 03:37:07;;;;;;;15.88;8.73;;;;;;;;;;5088309;28;20757;-59
2023/08/21 03:39:33;;;;;;;16.90;9.25;;;;;;;;;;5090500;28;20526;-57
2023/08/21 03:41:59;;;;;;;15.95;8.43;;;;;;;;;;5080499;28;20135;-58
2023/08/21 03:44:25;;;;;;;13.55;8.40;;;;;;;;;;5083998;28;20053;-57
2023/08/21 03:46:51;;;;;;;14.70;8.55;;;;;;;;;;5084992;28;20865;-54
2023/08/21 03:49:17;;;;;;;16.98;8.60;;;;;;;;;;5090910;28;20078;-58
2023/08/21 03:51:43;;;;;;;15.93;8.75;;;;;;;;;;5080100;28;20371;-53
2023/08/21 03:54:09;;;;;;;13.95;8.85;;;;;;;;;;5102047;28;20063;-59
2023/08/21 03:56:35;;;;;;;18.70;9.23;;;;;;;;;;5085837;28;20419;-61
2023/08/21 03:59:01;;;;;;;13.98;8.38;;;;;;;;;;5083424;28;20091;-59
2023/08/21 04:01:26;;;;;;;12.70;7.90;;;;;;;;;;5086970;28;20084;-56
2023/08/21 04:03:53;;;;;;;12.00;8.07;;;;;;;;;;5078438;28;20061;-59
2023/08/21 04:06:18;;;;;;;15.00;8.18;;;;;;;;;;5083946;28;20411;-58
2023/08/21 04:08:44;;;;;;;19.42;8.02;;;;;;;;;;5087975;28;20036;-60
2023/08/21 04:11:10;;;;;;;12.80;7.78;;;;;;;;;;5078385;28;20057;-60
2023/08/21 04:13:36;;;;;;;11.95;7.55;;;;;;;;;;5080537;28;20064;-61
2023/08/21 04:16:02;;;;;;;14.93;7.70;;;;;;;;;;5085395;28;20098;-57
2023/08/21 04:18:28;;;;;;;11.38;7.45;;;;;;;;;;5085177;28;20052;-58
2023/08/21 04:20:54;;;;;;;10.50;7.70;;;;;;;;;;5081877;28;20044;-58
2023/08/21 04:23:20;;;;;;;11.63;8.55;;;;;;;;;;5088881;28;20568;-57
2023/08/21 04:25:46;;;;;;;10.27;7.75;;;;;;;;;;5087286;28;20048;-56
2023/08/21 04:28:12;;;;;;;15.90;7.80;;;;;;;;;;5079786;28;20044;-62
2023/08/21 04:30:41;;;;;;;14.35;8.27;;;;;;;;;;5082290;28;20044;-59
2023/08/21 04:33:07;;;;;;;17.10;8.23;;;;;;;;;;5088222;28;20059;-59
2023/08/21 04:35:37;;;;;;;17.25;8.30;;;;;;;;;;5085724;28;20052;-59
2023/08/21 04:38:04;;;;;;;12.75;7.60;;;;;;;;;;5079225;28;20056;-60
2023/08/21 04:40:30;;;;;;;13.40;8.48;;;;;;;;;;5081322;28;20036;-58
2023/08/21 04:42:56;;;;;;;13.43;8.10;;;;;;;;;;5086830;28;20093;-60
2023/08/21 04:45:22;;;;;;;10.43;7.95;;;;;;;;;;5087906;28;20036;-60
2023/08/21 04:47:48;;;;;;;13.85;7.93;;;;;;;;;;5085894;28;20051;-55
2023/08/21 04:50:15;;;;;;;13.77;8.13;;;;;;;;;;5081685;28;20393;-60
2023/08/21 04:52:41;;;;;;;14.20;7.75;;;;;;;;;;5086108;28;20048;-58
2023/08/21 04:55:07;;;;;;;17.92;8.25;;;;;;;;;;5081255;28;20051;-61
2023/08/21 04:57:33;;;;;;;12.02;7.70;;;;;;;;;;5077276;28;20059;-60
2023/08/21 04:59:59;;;;;;;18.42;7.60;;;;;;;;;;5089202;28;20362;-57
2023/08/21 05:02:25;;;;;;;13.07;8.00;;;;;;;;;;5087755;28;20050;-58
2023/08/21 05:04:51;;;;;;;12.75;7.50;;;;;;;;;;5086612;28;20543;-63
2023/08/21 05:07:17;;;;;;;15.15;8.40;;;;;;;;;;5082411;28;20296;-59
2023/08/21 05:09:43;;;;;;;14.07;7.50;;;;;;;;;;5085897;28;20052;-60
2023/08/21 05:12:09;;;;;;;14.02;7.80;;;;;;;;;;5087885;28;20048;-59
2023/08/21 05:14:35;;;;;;;16.10;7.80;;;;;;;;;;5090037;28;20059;-57
2023/08/21 05:17:01;;;;;;;11.75;7.45;;;;;;;;;;5082570;28;20056;-57
2023/08/21 05:19:26;;;;;;;14.82;7.72;;;;;;;;;;5087075;28;20055;-60
2023/08/21 05:21:52;;;;;;;14.02;7.22;;;;;;;;;;5086063;28;20060;-59
2023/08/21 05:24:18;;;;;;;12.32;7.30;;;;;;;;;;5085684;28;20066;-60
2023/08/21 05:26:44;;;;;;;18.33;7.72;;;;;;;;;;5078666;28;20076;-58
2023/08/21 05:29:10;;;;;;;16.20;7.55;;;;;;;;;;5084911;28;20480;-60
2023/08/21 05:31:36;;;;;;;11.68;6.97;;;;;;;;;;5083708;28;20063;-60
2023/08/21 05:34:02;;;;;;;13.38;7.82;;;;;;;;;;5088705;28;20060;-60
2023/08/21 05:36:28;;;;;;;13.35;7.72;;;;;;;;;;5081004;28;20496;-58
2023/08/21 05:38:56;;;;;;;10.75;7.63;;;;;;;;;;5080606;28;20078;-58
2023/08/21 05:41:22;;;;;;;12.55;7.30;;;;;;;;;;5079360;28;20129;-57
2023/08/21 05:43:48;;;;;;;13.07;7.78;;;;;;;;;;5085018;28;22201;-56
2023/08/21 05:46:14;;;;;;;11.35;7.70;;;;;;;;;;5086254;28;20051;-56
2023/08/21 05:48:40;;;;;;;14.20;8.07;;;;;;;;;;5086166;28;20502;-59
2023/08/21 05:51:06;;;;;;;18.05;8.60;;;;;;;;;;5081213;28;20052;-59
2023/08/21 05:53:32;;;;;;;15.15;7.88;;;;;;;;;;5080157;28;20044;-59
2023/08/21 05:55:58;;;;;;;14.02;8.02;;;;;;;;;;5082617;28;20075;-55
2023/08/21 05:58:29;;;;;;;14.32;7.93;;;;;;;;;;5085397;28;20491;-60
2023/08/21 06:00:55;;;;;;;13.65;8.23;;;;;;;;;;5082897;28;20056;-60
2023/08/21 06:03:21;;;;;;;12.65;7.78;;;;;;;;;;5086595;28;20449;-60
2023/08/21 06:05:47;;;;;;;19.27;8.90;;;;;;;;;;5086886;28;20060;-59
2023/08/21 06:08:13;;;;;;;16.27;8.23;;;;;;;;;;5077835;28;20560;-56
2023/08/21 06:10:39;;;;;;;16.45;8.45;;;;;;;;;;5077782;28;20048;-56
2023/08/21 06:13:06;;;;;;;17.13;8.32;;;;;;;;;;5078167;28;20052;-57
2023/08/21 06:15:32;;;;;;;19.90;8.38;;;;;;;;;;5075143;28;20052;-60
2023/08/21 06:17:58;;;;;;;16.13;8.77;;;;;;;;;;5073004;28;20381;-58
2023/08/21 06:20:26;;;;;;;18.38;8.20;;;;;;;;;;5077419;28;20075;-59
2023/08/21 06:22:52;;;;;;;20.33;9.27;;;;;;;;;;5084078;28;20072;-58
2023/08/21 06:25:19;;;;;;;23.98;9.68;;;;;;;;;;5085103;28;20101;-58
2023/08/21 06:27:45;;;;;;;20.02;9.25;;;;;;;;;;5076811;28;20135;-56
2023/08/21 06:30:11;;;;;;;20.80;9.27;;;;;;;;;;5086810;28;20483;-57
2023/08/21 06:32:37;;;;;;;20.15;9.75;;;;;;;;;;5086655;28;20140;-59
2023/08/21 06:35:03;;;;;;;17.75;9.13;;;;;;;;;;5087273;28;20451;-58
2023/08/21 06:37:29;;;;;;;18.75;9.02;;;;;;;;;;5080456;28;20068;-58
2023/08/21 06:39:55;;;;;;;15.35;8.40;;;;;;;;;;5081115;28;20036;-59
2023/08/21 06:42:21;;;;;;;17.25;9.68;;;;;;;;;;5071527;28;20078;-57
2023/08/21 06:44:47;;;;;;;14.57;9.18;;;;;;;;;;5082601;28;20063;-57
2023/08/21 06:47:13;;;;;;;19.15;9.25;;;;;;;;;;5077421;28;20400;-58
2023/08/21 06:49:39;;;;;;;26.33;9.00;;;;;;;;;;5082311;28;20527;-60
2023/08/21 06:52:05;;;;;;;18.15;9.52;;;;;;;;;;5085077;28;20040;-60
2023/08/21 06:54:31;;;;;;;18.35;10.05;;;;;;;;;;5081358;28;20070;-60
2023/08/21 06:56:58;;;;;;;19.98;10.18;;;;;;;;;;5076533;28;20044;-61
2023/08/21 06:59:24;;;;;;;21.77;9.55;;;;;;;;;;5077114;28;20048;-62
2023/08/21 07:01:51;;;;;;;14.60;8.73;;;;;;;;;;5076842;28;20044;-61
2023/08/21 07:04:17;;;;;;;17.98;7.97;;;;;;;;;;5090916;28;20062;-61
2023/08/21 07:06:43;;;;;;;16.15;9.15;;;;;;;;;;5085364;28;20052;-66
2023/08/21 07:09:09;;;;;;;18.55;9.07;;;;;;;;;;5089477;28;20131;-63
2023/08/21 07:11:35;;;;;;;18.80;8.75;;;;;;;;;;5087205;28;20152;-64
2023/08/21 07:14:02;;;;;;;16.83;9.90;;;;;;;;;;5083645;28;20059;-64
2023/08/21 07:16:27;;;;;;;25.45;9.98;;;;;;;;;;5085246;28;20779;-66
2023/08/21 07:18:53;;;;;;;17.92;9.27;;;;;;;;;;5083307;28;20117;-66
2023/08/21 07:21:20;;;;;;;18.27;9.00;;;;;;;;;;5090109;28;20509;-64
2023/08/21 07:23:46;;;;;;;19.73;9.65;;;;;;;;;;5084664;28;20059;-64
2023/08/21 07:26:12;;;;;;;16.98;8.85;;;;;;;;;;5088382;28;20047;-64
2023/08/21 07:28:38;;;;;;;20.35;8.75;;;;;;;;;;5081155;28;20043;-66
2023/08/21 07:31:05;;;;;;;19.98;8.60;;;;;;;;;;5085909;28;20048;-65
2023/08/21 07:33:31;;;;;;;17.60;8.73;;;;;;;;;;5075068;28;20057;-66
2023/08/21 07:36:02;;;;;;;16.48;7.72;;;;;;;;;;5083964;28;20056;-66
2023/08/21 07:38:28;;;;;;;18.65;7.70;;;;;;;;;;5085299;28;20506;-67
2023/08/21 07:41:10;;;;;;;14.82;7.45;;;;;;;;;;5084661;28;20044;-67
2023/08/21 07:43:40;;;;;;;12.98;6.53;;;;;;;;;;5083936;28;20056;-67
2023/08/21 07:46:09;;;;;;;15.25;6.60;;;;;;;;;;5086960;28;20075;-64
2023/08/21 07:48:35;;;;;;;16.25;7.00;;;;;;;;;;5084336;28;20044;-65
2023/08/21 07:51:02;;;;;;;15.85;6.63;;;;;;;;;;5084340;28;20510;-66
2023/08/21 07:53:28;;;;;;;17.00;6.50;;;;;;;;;;5080503;28;20044;-66
2023/08/21 07:55:53;;;;;;;13.35;6.47;;;;;;;;;;5085820;28;20565;-66
2023/08/21 07:58:20;;;;;;;14.43;6.10;;;;;;;;;;5077157;28;20482;-66
2023/08/21 08:00:48;;;;;;;12.98;6.40;;;;;;;;;;5085341;28;20139;-67
2023/08/21 08:03:14;;;;;;;12.50;5.97;;;;;;;;;;5088691;28;20063;-67
2023/08/21 08:05:42;;;;;;;13.88;5.65;;;;;;;;;;5081144;28;20404;-67
2023/08/21 08:08:09;;;;;;;9.90;5.13;;;;;;;;;;5079129;28;20539;-67
2023/08/21 08:10:39;;;;;;;19.13;6.30;;;;;;;;;;5080242;28;20789;-65
2023/08/21 08:13:06;;;;;;;13.27;5.53;;;;;;;;;;5083511;28;20055;-65
2023/08/21 08:15:33;;;;;;;11.07;5.60;;;;;;;;;;5080684;28;20048;-65
2023/08/21 08:18:00;;;;;;;11.00;5.50;;;;;;;;;;5089036;28;20039;-66
2023/08/21 08:20:25;;;;;;;10.90;5.15;;;;;;;;;;5085257;28;20522;-62
2023/08/21 08:22:51;;;;;;;13.45;5.43;;;;;;;;;;5082651;28;20055;-64
2023/08/21 08:25:18;;;;;;;11.65;4.93;;;;;;;;;;5083042;28;20048;-63
2023/08/21 08:27:44;;;;;;;14.05;4.90;;;;;;;;;;5081994;28;20109;-65
2023/08/21 08:30:10;;;;;;;11.65;5.18;;;;;;;;;;5084410;28;20067;-65
2023/08/21 08:32:36;;;;;;;14.52;5.13;;;;;;;;;;5076506;28;20052;-63
2023/08/21 08:35:02;;;;;;;10.85;5.00;;;;;;;;;;5083171;28;20040;-63
2023/08/21 08:37:29;;;;;;;12.13;5.05;;;;;;;;;;5088015;28;20058;-64
2023/08/21 08:39:54;;;;;;;12.00;5.13;;;;;;;;;;5089599;28;20134;-63
2023/08/21 08:42:20;;;;;;;10.07;5.10;;;;;;;;;;5090397;28;20037;-64
2023/08/21 08:44:47;;;;;;;11.80;4.85;;;;;;;;;;5079824;28;20048;-63
2023/08/21 08:47:14;;;;;;;13.90;4.82;;;;;;;;;;5085314;28;20048;-66
2023/08/21 08:49:41;;;;;;;15.73;4.70;;;;;;;;;;5084040;28;20063;-63
2023/08/21 08:52:07;;;;;;;12.45;4.93;;;;;;;;;;5089028;28;20048;-66
2023/08/21 08:54:35;;;;;;;9.50;4.60;;;;;;;;;;5086137;28;20047;-63
2023/08/21 08:57:01;;;;;;;12.25;4.75;;;;;;;;;;5085073;28;20058;-62
2023/08/21 08:59:31;;;;;;;11.38;4.53;;;;;;;;;;5082940;28;20043;-64
2023/08/21 09:01:57;;;;;;;14.07;5.07;;;;;;;;;;5080412;28;20044;-63
2023/08/21 09:04:23;;;;;;;12.65;4.85;;;;;;;;;;5089192;28;20119;-65
2023/08/21 09:06:49;;;;;;;14.98;5.20;;;;;;;;;;5087870;28;20059;-64
2023/08/21 09:09:57;;;;;;;15.20;5.13;;;;;;;;;;5085780;28;20048;-63
2023/08/21 09:13:38;;;;;;;19.48;4.97;;;;;;;;;;5083711;28;20099;-67
2023/08/21 09:17:18;;;;;;;11.35;5.45;;;;;;;;;;5082802;28;20048;-64
2023/08/21 09:20:58;;;;;;;11.45;4.90;;;;;;;;;;5087315;28;20080;-65
2023/08/21 09:24:42;;;;;;;15.43;6.40;;;;;;;;;;5085027;28;20052;-64
2023/08/21 09:28:37;;;;;;;14.38;6.72;;;;;;;;;;5075040;28;20044;-62
2023/08/21 09:32:18;;;;;;;19.80;6.90;;;;;;;;;;5077158;28;20147;-63
2023/08/21 09:35:58;;;;;;;15.93;6.72;;;;;;;;;;5081198;28;20108;-64
2023/08/21 09:39:39;;;;;;;10.13;5.32;;;;;;;;;;5087411;28;20036;-63
2023/08/21 09:43:25;;;;;;;10.93;5.40;;;;;;;;;;5085227;28;20216;-62
2023/08/21 09:47:05;;;;;;;13.93;5.72;;;;;;;;;;5087785;28;20521;-63
2023/08/21 09:50:45;;;;;;;11.52;5.18;;;;;;;;;;5082125;28;20185;-64
2023/08/21 09:54:26;;;;;;;17.70;5.93;;;;;;;;;;5083433;28;20040;-64
2023/08/21 09:58:07;;;;;;;16.17;6.35;;;;;;;;;;5081823;28;20075;-65
2023/08/21 10:01:47;;;;;;;13.23;6.55;;;;;;;;;;5082626;28;20055;-66
2023/08/21 10:05:27;;;;;;;13.85;5.82;;;;;;;;;;5080025;28;20373;-67
2023/08/21 10:09:07;;;;;;;11.38;5.72;;;;;;;;;;5081155;28;20059;-66
2023/08/21 10:12:48;;;;;;;23.52;5.55;;;;;;;;;;5077987;28;20044;-68
2023/08/21 10:16:28;;;;;;;10.02;5.00;;;;;;;;;;5087524;28;20063;-67
2023/08/21 10:20:12;;;;;;;10.32;4.78;;;;;;;;;;5086444;28;20051;-67
2023/08/21 10:23:52;;;;;;;11.55;4.38;;;;;;;;;;5080597;28;20404;-66
2023/08/21 10:27:32;;;;;;;12.50;5.70;;;;;;;;;;5074679;28;20044;-67
2023/08/21 10:31:13;;;;;;;12.60;5.10;;;;;;;;;;5075363;28;20070;-67
2023/08/21 10:34:53;;;;;;;15.88;4.50;;;;;;;;;;5087761;28;20411;-65
2023/08/21 10:38:09;;;;;;;12.30;4.22;;;;;;;;;;5079334;28;20129;-64
2023/08/21 10:41:46;;;;;;;11.90;4.63;;;;;;;;;;5088134;28;20071;-67
2023/08/21 10:45:29;;;;;;;7.20;4.78;;;;;;;;;;5079083;28;20127;-67
2023/08/21 10:49:09;;;;;;;9.38;4.70;;;;;;;;;;5089526;28;20142;-66
2023/08/21 10:52:50;;;;;;;15.35;4.97;;;;;;;;;;5078559;28;20052;-66
2023/08/21 10:56:33;;;;;;;8.02;4.50;;;;;;;;;;5081121;28;20377;-65
2023/08/21 11:00:22;;;;;;;11.00;4.95;;;;;;;;;;5088803;28;20055;-66
2023/08/21 11:03:59;;;;;;;11.55;4.63;;;;;;;;;;5088033;28;20047;-66
2023/08/21 11:07:40;;;;;;;7.03;4.68;;;;;;;;;;5081267;28;20083;-66
2023/08/21 11:11:20;;;;;;;9.85;4.80;;;;;;;;;;5077745;28;20123;-66
2023/08/21 11:15:01;;;;;;;13.23;4.95;;;;;;;;;;5088418;28;20032;-66
2023/08/21 11:18:42;;;;;;;9.82;5.00;;;;;;;;;;5082117;28;20108;-65
2023/08/21 11:22:23;;;;;;;10.63;5.03;;;;;;;;;;5081410;28;20135;-66
2023/08/21 11:26:03;;;;;;;10.55;5.10;;;;;;;;;;5083632;28;20187;-66
2023/08/21 11:29:43;;;;;;;8.23;3.70;;;;;;;;;;5079970;28;20044;-65
2023/08/21 11:33:24;;;;;;;8.55;4.18;;;;;;;;;;5089818;28;20530;-68
2023/08/21 11:37:04;;;;;;;7.20;3.60;;;;;;;;;;5074348;28;20048;-67
2023/08/21 11:40:44;;;;;;;17.35;4.63;;;;;;;;;;5086956;28;20126;-67
2023/08/21 11:44:25;;;;;;;12.40;4.45;;;;;;;;;;5086568;28;20561;-65
2023/08/21 11:48:05;;;;;;;11.75;4.28;;;;;;;;;;5084064;28;20044;-66
2023/08/21 11:51:45;;;;;;;12.35;4.07;;;;;;;;;;5079171;28;20558;-66
2023/08/21 11:55:28;;;;;;;10.05;3.63;;;;;;;;;;5089963;28;20078;-66
2023/08/21 11:59:09;;;;;;;6.28;3.40;;;;;;;;;;5078394;28;20048;-66
2023/08/21 12:02:49;;;;;;;8.75;3.15;;;;;;;;;;5079311;28;20044;-67
2023/08/21 12:06:32;;;;;;;10.52;3.40;;;;;;;;;;5085591;28;20417;-66
2023/08/21 12:10:10;;;;;;;5.60;3.13;;;;;;;;;;5089274;28;20040;-64
2023/08/21 12:13:51;;;;;;;6.93;3.28;;;;;;;;;;5086513;28;20048;-65
2023/08/21 12:17:30;;;;;;;5.75;3.47;;;;;;;;;;5082446;28;20056;-69
2023/08/21 12:21:11;;;;;;;7.53;2.88;;;;;;;;;;5084687;28;20537;-68
2023/08/21 12:24:51;;;;;;;8.30;3.50;;;;;;;;;;5086824;28;20071;-65
2023/08/21 12:28:31;;;;;;;7.30;3.28;;;;;;;;;;5083221;28;20494;-66
2023/08/21 12:32:11;;;;;;;5.53;3.00;;;;;;;;;;5082973;28;20055;-68
2023/08/21 12:35:52;;;;;;;9.23;3.03;;;;;;;;;;5088092;28;20055;-66
2023/08/21 12:39:32;;;;;;;7.45;2.90;;;;;;;;;;5082529;28;20051;-66
2023/08/21 12:43:12;;;;;;;8.85;2.90;;;;;;;;;;5077497;28;20048;-66
2023/08/21 12:46:53;;;;;;;8.77;3.20;;;;;;;;;;5077264;28;20082;-65
2023/08/21 12:50:33;;;;;;;8.80;3.33;;;;;;;;;;5087903;28;20043;-67
2023/08/21 12:54:14;;;;;;;12.50;3.40;;;;;;;;;;5088564;28;20063;-67
2023/08/21 12:57:55;;;;;;;8.05;4.00;;;;;;;;;;5083396;28;20043;-66
2023/08/21 13:01:37;;;;;;;11.73;3.58;;;;;;;;;;5085292;28;20052;-67
2023/08/21 13:05:16;;;;;;;10.52;3.20;;;;;;;;;;5085342;28;20052;-66
2023/08/21 13:08:56;;;;;;;8.00;3.78;;;;;;;;;;5089225;28;20101;-67
2023/08/21 13:12:36;;;;;;;8.60;3.88;;;;;;;;;;5079150;28;20063;-68
2023/08/21 13:16:17;;;;;;;12.57;4.05;;;;;;;;;;5076773;28;20044;-66
2023/08/21 13:19:57;;;;;;;8.20;3.30;;;;;;;;;;5084206;28;20182;-66
2023/08/21 13:23:37;;;;;;;10.65;3.60;;;;;;;;;;5087657;28;20108;-66
2023/08/21 13:27:18;;;;;;;14.48;4.38;;;;;;;;;;5079482;28;20127;-65
2023/08/21 13:30:58;;;;;;;8.30;2.90;;;;;;;;;;5081912;28;20119;-66
2023/08/21 13:34:38;;;;;;;9.13;2.80;;;;;;;;;;5082173;28;20048;-66
2023/08/21 13:38:19;;;;;;;10.05;2.72;;;;;;;;;;5086019;28;20045;-65
2023/08/21 13:41:59;;;;;;;8.38;2.63;;;;;;;;;;5084800;28;20043;-65
2023/08/21 13:45:42;;;;;;;9.25;2.70;;;;;;;;;;5079123;28;20373;-66
2023/08/21 13:49:22;;;;;;;7.38;2.50;;;;;;;;;;5077743;28;20480;-71
2023/08/21 13:53:03;;;;;;;8.25;2.33;;;;;;;;;;5081806;28;20488;-66
2023/08/21 13:56:43;;;;;;;7.88;2.50;;;;;;;;;;5084756;28;20631;-65
2023/08/21 14:00:24;;;;;;;12.02;2.67;;;;;;;;;;5090878;28;20119;-63
2023/08/21 14:04:04;;;;;;;12.02;2.88;;;;;;;;;;5082935;28;20408;-64
2023/08/21 14:07:45;;;;;;;10.70;2.95;;;;;;;;;;5080323;28;20080;-64
2023/08/21 14:11:25;;;;;;;8.20;3.00;;;;;;;;;;5085342;28;20048;-63
2023/08/21 14:15:05;;;;;;;8.45;2.42;;;;;;;;;;5087408;28;20048;-62
2023/08/21 14:18:46;;;;;;;11.20;3.13;;;;;;;;;;5070723;28;20040;-65
2023/08/21 14:22:26;;;;;;;12.43;3.10;;;;;;;;;;5082637;28;20278;-62
2023/08/21 14:26:07;;;;;;;8.88;2.80;;;;;;;;;;5081588;28;20097;-63
2023/08/21 14:29:47;;;;;;;7.43;2.75;;;;;;;;;;5085816;28;20503;-63
2023/08/21 14:33:27;;;;;;;6.20;2.90;;;;;;;;;;5076605;28;20069;-61
2023/08/21 14:37:07;;;;;;;8.32;2.65;;;;;;;;;;5072060;28;20112;-62
2023/08/21 14:40:49;;;;;;;5.53;2.60;;;;;;;;;;5084242;28;20196;-62
2023/08/21 14:44:28;;;;;;;7.93;2.78;;;;;;;;;;5079538;28;20079;-62
2023/08/21 14:48:08;;;;;;;9.00;2.90;;;;;;;;;;5072651;28;20052;-61
2023/08/21 14:51:49;;;;;;;13.05;3.13;;;;;;;;;;5080243;28;20167;-62
2023/08/21 14:55:32;;;;;;;11.20;3.47;;;;;;;;;;5078230;28;20052;-65
2023/08/21 14:59:14;;;;;;;8.10;3.22;;;;;;;;;;5078215;28;20045;-63
2023/08/21 15:02:53;;;;;;;16.48;3.22;;;;;;;;;;5076971;28;20044;-62
2023/08/21 15:06:33;;;;;;;11.25;3.25;;;;;;;;;;5087796;28;20048;-61
2023/08/21 15:10:13;;;;;;;7.05;3.10;;;;;;;;;;5080514;28;20045;-64
2023/08/21 15:13:54;;;;;;;10.65;3.10;;;;;;;;;;5084775;28;20056;-62
2023/08/21 15:17:35;;;;;;;11.85;3.13;;;;;;;;;;5080236;28;20524;-62
2023/08/21 15:21:15;;;;;;;10.35;3.70;;;;;;;;;;5080000;28;20097;-63
2023/08/21 15:24:55;;;;;;;13.25;3.25;;;;;;;;;;5090585;28;20441;-63
2023/08/21 15:28:35;;;;;;;10.98;3.20;;;;;;;;;;5089504;28;20128;-60
2023/08/21 15:32:16;;;;;;;7.90;2.88;;;;;;;;;;5080874;28;20093;-62
2023/08/21 15:35:56;;;;;;;10.98;3.15;;;;;;;;;;5083820;28;20043;-63
2023/08/21 15:39:36;;;;;;;10.77;2.80;;;;;;;;;;5076099;28;20044;-63
2023/08/21 15:43:17;;;;;;;9.98;2.58;;;;;;;;;;5081189;28;20044;-62
2023/08/21 15:46:57;;;;;;;7.85;2.42;;;;;;;;;;5079918;28;20067;-62
2023/08/21 15:50:37;;;;;;;13.10;2.70;;;;;;;;;;5080653;28;20087;-63
2023/08/21 15:54:18;;;;;;;6.70;2.35;;;;;;;;;;5083895;28;20127;-63
2023/08/21 15:57:58;;;;;;;11.75;2.53;;;;;;;;;;5078717;28;20040;-61
2023/08/21 16:01:38;;;;;;;11.18;2.97;;;;;;;;;;5082709;28;20047;-61
2023/08/21 16:05:20;;;;;;;13.70;3.03;;;;;;;;;;5077055;28;20060;-61
2023/08/21 16:08:59;;;;;;;6.13;2.55;;;;;;;;;;5078630;28;20047;-62
2023/08/21 16:12:40;;;;;;;8.52;2.60;;;;;;;;;;5076273;28;20060;-60
2023/08/21 16:16:20;;;;;;;7.10;2.80;;;;;;;;;;5073001;28;20424;-61
2023/08/21 16:20:04;;;;;;;15.35;3.22;;;;;;;;;;5073696;28;20033;-61
2023/08/21 16:23:41;;;;;;;6.25;2.67;;;;;;;;;;5070856;28;20386;-62
2023/08/21 16:27:21;;;;;;;11.35;3.03;;;;;;;;;;5077216;28;20093;-64
2023/08/21 16:31:01;;;;;;;8.55;2.75;;;;;;;;;;5079703;28;20564;-61
2023/08/21 16:34:41;;;;;;;11.07;2.72;;;;;;;;;;5069833;28;20059;-60
2023/08/21 16:38:22;;;;;;;11.60;2.92;;;;;;;;;;5078923;28;20402;-63
2023/08/21 16:42:04;;;;;;;6.75;2.60;;;;;;;;;;5072158;28;20181;-63
2023/08/21 16:45:44;;;;;;;11.05;2.95;;;;;;;;;;5074593;28;20075;-63
2023/08/21 16:49:24;;;;;;;8.38;2.78;;;;;;;;;;5071635;28;20302;-63
2023/08/21 16:53:05;;;;;;;13.70;2.80;;;;;;;;;;5071893;28;20052;-61
2023/08/21 16:56:45;;;;;;;8.00;2.63;;;;;;;;;;5070867;28;20051;-62
2023/08/21 17:00:25;;;;;;;7.43;2.75;;;;;;;;;;5068138;28;20051;-62
2023/08/21 17:04:06;;;;;;;10.02;2.70;;;;;;;;;;5074288;28;20414;-63
2023/08/21 17:07:46;;;;;;;12.85;3.38;;;;;;;;;;5075694;28;20062;-64